Time;durP1;ratioP1;P1;durP2;ratioP2;P2;SDS_P1;SDS_P2;PMS_P1;PMS_P2;Temp;Humidity;BMP_temperature;BMP_pressure;BME280_temperature;BME280_humidity;BME280_pressure;Samples;Min_cycle;Max_cycle;Signal;HPM_P1;HPM_P2
2023/05/28 00:00:10;;;;;;;30.52;10.07;;;11.40;99.90;;;;;;5036620;28;20505;-64
2023/05/28 00:02:37;;;;;;;32.28;10.68;;;11.30;99.90;;;;;;5035782;28;20128;-63
2023/05/28 00:05:04;;;;;;;36.67;11.13;;;11.30;99.90;;;;;;5041236;28;20159;-63
2023/05/28 00:07:30;;;;;;;29.30;10.40;;;11.30;99.90;;;;;;5039853;28;20439;-63
2023/05/28 00:09:56;;;;;;;26.85;9.90;;;11.30;99.90;;;;;;5035848;28;20392;-62
2023/05/28 00:12:22;;;;;;;34.60;11.05;;;11.30;99.90;;;;;;5038370;28;20033;-63
2023/05/28 00:14:48;;;;;;;25.33;10.80;;;11.20;99.90;;;;;;5040207;28;20060;-62
2023/05/28 00:17:15;;;;;;;30.08;11.27;;;11.20;99.90;;;;;;5039708;28;20128;-62
2023/05/28 00:19:41;;;;;;;29.10;10.65;;;11.20;99.90;;;;;;5053498;28;20553;-62
2023/05/28 00:22:07;;;;;;;32.45;11.10;;;11.10;99.90;;;;;;5066396;28;20044;-63
2023/05/28 00:24:32;;;;;;;24.23;10.25;;;11.10;99.90;;;;;;5034166;28;20083;-63
2023/05/28 00:26:58;;;;;;;27.88;10.50;;;11.10;99.90;;;;;;5040454;28;20037;-63
2023/05/28 00:29:26;;;;;;;29.67;10.60;;;11.00;99.90;;;;;;5038654;28;20047;-63
2023/05/28 00:31:55;;;;;;;29.17;10.82;;;11.00;99.90;;;;;;5069648;28;20435;-63
2023/05/28 00:34:25;;;;;;;25.42;10.25;;;11.00;99.90;;;;;;5039824;28;20048;-63
2023/05/28 00:36:51;;;;;;;30.77;9.88;;;11.00;99.90;;;;;;5037390;28;20524;-63
2023/05/28 00:39:18;;;;;;;23.10;8.85;;;10.90;99.90;;;;;;5040346;28;20037;-63
2023/05/28 00:41:44;;;;;;;24.65;9.00;;;10.90;99.90;;;;;;5067767;28;20072;-63
2023/05/28 00:44:10;;;;;;;27.45;9.88;;;10.90;99.90;;;;;;5072961;28;20037;-63
2023/05/28 00:46:40;;;;;;;26.83;9.05;;;10.90;99.90;;;;;;5068297;28;20624;-63
2023/05/28 00:49:06;;;;;;;27.67;9.20;;;10.80;99.90;;;;;;5039748;28;20047;-63
2023/05/28 00:51:33;;;;;;;25.25;9.50;;;10.80;99.90;;;;;;5040450;28;20484;-63
2023/05/28 00:53:58;;;;;;;28.70;9.10;;;10.80;99.90;;;;;;5044265;28;20395;-63
2023/05/28 00:56:24;;;;;;;26.85;8.38;;;10.70;99.90;;;;;;5041861;28;20041;-64
2023/05/28 00:58:51;;;;;;;29.27;8.60;;;10.70;99.90;;;;;;5037927;28;20703;-63
2023/05/28 01:01:17;;;;;;;25.20;8.55;;;10.60;99.90;;;;;;5041976;28;20041;-63
2023/05/28 01:03:43;;;;;;;33.97;9.73;;;10.60;99.90;;;;;;5040872;28;20095;-63
2023/05/28 01:06:12;;;;;;;31.98;9.90;;;10.60;99.90;;;;;;5044836;28;20396;-63
2023/05/28 01:08:39;;;;;;;24.85;8.73;;;10.70;99.90;;;;;;5040388;28;20055;-63
2023/05/28 01:11:07;;;;;;;27.30;9.35;;;10.70;99.90;;;;;;5073959;28;20451;-63
2023/05/28 01:13:34;;;;;;;28.98;8.90;;;10.70;99.90;;;;;;5041526;28;20106;-63
2023/05/28 01:16:00;;;;;;;28.85;9.35;;;10.70;99.90;;;;;;5043700;28;20060;-63
2023/05/28 01:18:27;;;;;;;30.73;9.65;;;10.70;99.90;;;;;;5041171;28;20483;-63
2023/05/28 01:20:53;;;;;;;30.83;9.90;;;10.70;99.90;;;;;;5073354;28;20055;-63
2023/05/28 01:23:20;;;;;;;29.83;9.55;;;10.70;99.90;;;;;;5071833;28;20396;-63
2023/05/28 01:25:53;;;;;;;31.10;9.52;;;10.70;99.90;;;;;;5072872;28;20439;-64
2023/05/28 01:28:21;;;;;;;27.90;8.95;;;10.70;99.90;;;;;;5068638;28;20480;-64
2023/05/28 01:30:46;;;;;;;30.63;10.18;;;10.70;99.90;;;;;;5071536;28;20048;-64
2023/05/28 01:33:13;;;;;;;27.88;9.45;;;10.60;99.90;;;;;;5035319;28;20497;-64
2023/05/28 01:35:40;;;;;;;36.13;10.50;;;10.60;99.90;;;;;;5036200;28;20049;-63
2023/05/28 01:38:07;;;;;;;29.38;10.45;;;10.50;99.90;;;;;;5031044;28;21845;-63
2023/05/28 01:40:34;;;;;;;31.38;10.45;;;10.50;99.90;;;;;;5033575;28;20082;-63
2023/05/28 01:43:02;;;;;;;26.95;11.05;;;10.60;99.90;;;;;;5034467;28;20037;-62
2023/05/28 01:45:28;;;;;;;32.90;11.23;;;10.60;99.90;;;;;;5032027;28;20036;-62
2023/05/28 01:47:54;;;;;;;26.15;10.65;;;10.60;99.90;;;;;;5033551;28;20052;-63
2023/05/28 01:50:20;;;;;;;33.42;11.15;;;10.50;99.90;;;;;;5034594;28;20463;-63
2023/05/28 01:52:46;;;;;;;34.10;10.50;;;10.60;99.90;;;;;;5038384;28;20471;-63
2023/05/28 01:55:13;;;;;;;27.90;10.82;;;10.60;99.90;;;;;;5040587;28;20780;-63
2023/05/28 01:57:39;;;;;;;26.67;10.35;;;10.60;99.90;;;;;;5041588;28;20098;-63
2023/05/28 02:00:09;;;;;;;27.58;10.18;;;10.60;99.90;;;;;;5040392;28;20180;-63
2023/05/28 02:02:35;;;;;;;33.08;10.75;;;10.60;99.90;;;;;;5021461;28;20127;-62
2023/05/28 02:05:01;;;;;;;32.78;10.20;;;10.60;99.90;;;;;;5039724;28;20621;-63
2023/05/28 02:07:26;;;;;;;27.52;9.95;;;10.60;99.90;;;;;;5065978;28;20041;-63
2023/05/28 02:09:52;;;;;;;31.92;10.52;;;10.60;99.90;;;;;;5074062;28;20468;-62
2023/05/28 02:12:18;;;;;;;29.27;10.23;;;10.60;99.90;;;;;;5037799;28;20078;-63
2023/05/28 02:14:44;;;;;;;26.30;9.95;;;10.60;99.90;;;;;;5041091;28;20056;-63
2023/05/28 02:17:10;;;;;;;31.50;10.15;;;10.60;99.90;;;;;;5040467;28;20810;-63
2023/05/28 02:19:36;;;;;;;31.55;9.48;;;10.60;99.90;;;;;;5068868;28;20136;-63
2023/05/28 02:22:03;;;;;;;29.65;9.73;;;10.60;99.90;;;;;;5071676;28;20116;-63
2023/05/28 02:24:29;;;;;;;33.20;10.20;;;10.60;99.90;;;;;;5041401;28;20037;-63
2023/05/28 02:26:55;;;;;;;28.90;10.20;;;10.60;99.90;;;;;;5040556;28;20091;-63
2023/05/28 02:29:20;;;;;;;30.75;10.13;;;10.60;99.90;;;;;;5038759;28;20048;-62
2023/05/28 02:31:46;;;;;;;26.52;9.48;;;10.60;99.90;;;;;;5035457;28;20235;-63
2023/05/28 02:34:12;;;;;;;27.38;9.95;;;10.60;99.90;;;;;;5039985;28;20082;-63
2023/05/28 02:36:37;;;;;;;27.50;10.02;;;10.60;99.90;;;;;;5041144;28;20098;-64
2023/05/28 02:39:03;;;;;;;31.80;10.10;;;10.60;99.90;;;;;;5042491;28;20083;-64
2023/05/28 02:41:29;;;;;;;30.02;10.40;;;10.60;99.90;;;;;;5039068;28;20745;-62
2023/05/28 02:43:54;;;;;;;27.88;9.57;;;10.60;99.90;;;;;;5031423;28;20634;-62
2023/05/28 02:46:20;;;;;;;32.78;10.85;;;10.50;99.90;;;;;;5069737;28;20036;-63
2023/05/28 02:48:46;;;;;;;29.40;9.88;;;10.60;99.90;;;;;;5035243;28;20095;-63
2023/05/28 02:51:11;;;;;;;31.75;11.00;;;10.50;99.90;;;;;;5074919;28;20036;-62
2023/05/28 02:53:37;;;;;;;35.85;9.98;;;10.50;99.90;;;;;;5035100;28;20040;-64
2023/05/28 02:56:03;;;;;;;32.65;9.65;;;10.60;99.90;;;;;;5040571;28;20041;-62
2023/05/28 02:58:30;;;;;;;28.27;9.40;;;10.50;99.90;;;;;;5035803;28;20052;-62
2023/05/28 03:00:56;;;;;;;28.55;9.30;;;10.60;99.90;;;;;;5041201;28;20083;-63
2023/05/28 03:03:21;;;;;;;26.73;8.95;;;10.60;99.90;;;;;;5038124;28;20410;-63
2023/05/28 03:05:48;;;;;;;28.88;9.32;;;10.60;99.90;;;;;;5039209;28;20041;-62
2023/05/28 03:08:14;;;;;;;28.58;9.38;;;10.60;99.90;;;;;;5039120;28;20037;-63
2023/05/28 03:10:39;;;;;;;29.23;9.00;;;10.50;99.90;;;;;;5076195;28;20561;-63
2023/05/28 03:13:05;;;;;;;29.00;8.82;;;10.50;99.90;;;;;;5042282;28;20874;-63
2023/05/28 03:15:31;;;;;;;26.55;9.30;;;10.50;99.90;;;;;;5043941;28;20041;-63
2023/05/28 03:17:56;;;;;;;28.05;9.15;;;10.50;99.90;;;;;;5040779;28;20132;-63
2023/05/28 03:20:23;;;;;;;29.83;8.93;;;10.50;99.90;;;;;;5069959;28;20040;-62
2023/05/28 03:22:54;;;;;;;29.70;9.07;;;10.50;99.90;;;;;;5070857;28;20339;-63
2023/05/28 03:25:20;;;;;;;28.35;9.40;;;10.50;99.90;;;;;;5074426;28;20049;-62
2023/05/28 03:27:45;;;;;;;28.85;9.00;;;10.50;99.90;;;;;;5041194;28;20060;-62
2023/05/28 03:30:11;;;;;;;27.77;9.40;;;10.50;99.90;;;;;;5070157;28;20045;-63
2023/05/28 03:32:37;;;;;;;24.95;9.13;;;10.50;99.90;;;;;;5075038;28;20400;-63
2023/05/28 03:35:03;;;;;;;28.85;9.32;;;10.60;99.90;;;;;;5043231;28;21397;-63
2023/05/28 03:37:28;;;;;;;29.42;9.73;;;10.60;99.90;;;;;;5076058;28;20045;-63
2023/05/28 03:39:54;;;;;;;30.30;9.40;;;10.60;99.90;;;;;;5044952;28;20123;-63
2023/05/28 03:42:20;;;;;;;29.92;9.70;;;10.50;99.90;;;;;;5044780;28;20041;-63
2023/05/28 03:44:46;;;;;;;27.55;9.82;;;10.60;99.90;;;;;;5078007;28;20029;-62
2023/05/28 03:47:12;;;;;;;26.85;9.18;;;10.50;99.90;;;;;;5071409;28;20482;-63
2023/05/28 03:49:38;;;;;;;31.80;9.45;;;10.50;99.90;;;;;;5041130;28;20037;-62
2023/05/28 03:52:03;;;;;;;30.40;9.70;;;10.50;99.90;;;;;;5040126;28;20037;-62
2023/05/28 03:54:29;;;;;;;28.85;9.32;;;10.50;99.90;;;;;;5040023;28;20073;-63
2023/05/28 03:56:55;;;;;;;25.52;8.30;;;10.50;99.90;;;;;;5078878;28;20326;-64
2023/05/28 03:59:20;;;;;;;30.33;9.18;;;10.50;99.90;;;;;;5039659;28;20882;-63
2023/05/28 04:01:46;;;;;;;31.80;9.35;;;10.50;99.90;;;;;;5040871;28;20145;-64
2023/05/28 04:04:12;;;;;;;26.08;9.25;;;10.50;99.90;;;;;;5043488;28;20505;-64
2023/05/28 04:06:38;;;;;;;32.33;10.00;;;10.40;99.90;;;;;;5071704;28;20041;-63
2023/05/28 04:09:04;;;;;;;33.03;9.40;;;10.40;99.90;;;;;;5040559;28;20491;-64
2023/05/28 04:11:29;;;;;;;24.48;8.90;;;10.40;99.90;;;;;;5075933;28;20417;-63
2023/05/28 04:13:56;;;;;;;36.55;9.88;;;10.40;99.90;;;;;;5073127;28;20068;-62
2023/05/28 04:16:23;;;;;;;27.42;9.50;;;10.40;99.90;;;;;;5078187;28;20049;-63
2023/05/28 04:18:49;;;;;;;26.00;9.50;;;10.40;99.90;;;;;;5073299;28;20581;-62
2023/05/28 04:21:15;;;;;;;28.90;9.98;;;10.40;99.90;;;;;;5076381;28;20040;-63
2023/05/28 04:23:40;;;;;;;23.48;8.98;;;10.40;99.90;;;;;;5037298;28;20392;-63
2023/05/28 04:26:06;;;;;;;29.80;10.05;;;10.40;99.90;;;;;;5043087;28;20025;-63
2023/05/28 04:28:33;;;;;;;26.88;9.40;;;10.40;99.90;;;;;;5042063;28;20033;-64
2023/05/28 04:31:01;;;;;;;28.85;9.23;;;10.50;99.90;;;;;;5041188;28;20090;-63
2023/05/28 04:33:30;;;;;;;31.17;9.40;;;10.50;99.90;;;;;;5076159;28;20055;-63
2023/05/28 04:35:59;;;;;;;33.08;9.30;;;10.40;99.90;;;;;;5045219;28;20124;-63
2023/05/28 04:38:31;;;;;;;24.77;8.82;;;10.50;99.90;;;;;;5072345;28;20079;-63
2023/05/28 04:40:57;;;;;;;24.52;9.05;;;10.60;99.90;;;;;;5038862;28;20051;-63
2023/05/28 04:43:23;;;;;;;25.50;9.00;;;10.70;99.90;;;;;;5071897;28;20037;-61
2023/05/28 04:45:49;;;;;;;28.50;8.85;;;10.80;99.90;;;;;;5038843;28;20063;-62
2023/05/28 04:48:15;;;;;;;26.90;8.38;;;10.90;99.90;;;;;;5045034;28;20039;-63
2023/05/28 04:50:41;;;;;;;24.13;8.48;;;11.00;99.90;;;;;;5075105;28;20040;-63
2023/05/28 04:53:07;;;;;;;28.92;9.25;;;11.10;99.90;;;;;;5037345;28;20055;-63
2023/05/28 04:55:32;;;;;;;29.77;8.98;;;11.20;99.90;;;;;;5034470;28;20041;-64
2023/05/28 04:57:58;;;;;;;25.23;8.70;;;11.30;99.90;;;;;;5039864;28;20719;-62
2023/05/28 05:00:26;;;;;;;32.10;9.07;;;11.40;99.90;;;;;;5043055;28;20468;-63
2023/05/28 05:02:52;;;;;;;34.30;8.75;;;11.50;99.90;;;;;;5072751;28;20533;-63
2023/05/28 05:05:18;;;;;;;27.15;8.88;;;11.60;99.90;;;;;;5041115;28;20132;-64
2023/05/28 05:07:45;;;;;;;21.92;8.45;;;11.70;99.90;;;;;;5074569;28;20143;-64
2023/05/28 05:10:11;;;;;;;29.02;8.85;;;11.80;99.90;;;;;;5033995;28;20041;-63
2023/05/28 05:12:37;;;;;;;28.38;9.00;;;12.00;99.90;;;;;;5038782;28;20487;-63
2023/05/28 05:15:05;;;;;;;26.77;8.82;;;12.10;99.90;;;;;;5035068;28;20040;-63
2023/05/28 05:17:31;;;;;;;26.83;8.85;;;12.30;99.90;;;;;;5071586;28;20044;-63
2023/05/28 05:19:57;;;;;;;26.73;8.45;;;12.30;99.90;;;;;;5040504;28;20120;-63
2023/05/28 05:22:23;;;;;;;26.77;9.25;;;12.40;99.90;;;;;;5039741;28;20048;-63
2023/05/28 05:24:49;;;;;;;20.40;8.75;;;12.50;99.90;;;;;;5070996;28;20575;-63
2023/05/28 05:27:15;;;;;;;24.70;8.77;;;12.70;99.90;;;;;;5042514;28;20159;-64
2023/05/28 05:29:40;;;;;;;29.52;8.63;;;12.80;99.90;;;;;;5042112;28;20052;-64
2023/05/28 05:32:06;;;;;;;27.80;9.80;;;12.80;99.90;;;;;;5038970;28;20104;-63
2023/05/28 05:34:32;;;;;;;26.15;8.82;;;12.90;99.90;;;;;;5035849;28;20546;-64
2023/05/28 05:37:01;;;;;;;26.50;9.55;;;12.90;99.90;;;;;;5037324;28;20052;-64
2023/05/28 05:39:26;;;;;;;25.27;8.65;;;12.90;99.90;;;;;;5074307;28;20090;-64
2023/05/28 05:41:53;;;;;;;25.88;8.52;;;13.10;99.90;;;;;;5042957;28;20037;-64
2023/05/28 05:44:18;;;;;;;26.27;8.48;;;13.20;99.90;;;;;;5034679;28;20040;-65
2023/05/28 05:46:44;;;;;;;29.05;9.30;;;13.30;99.90;;;;;;5042920;28;20035;-63
2023/05/28 05:49:09;;;;;;;25.10;8.38;;;13.50;99.90;;;;;;5068835;28;20037;-63
2023/05/28 05:51:35;;;;;;;22.75;8.90;;;13.70;99.90;;;;;;5072381;28;20083;-64
2023/05/28 05:54:01;;;;;;;26.45;8.52;;;13.80;99.90;;;;;;5037716;28;20045;-64
2023/05/28 05:56:27;;;;;;;24.30;8.57;;;13.90;99.90;;;;;;5039342;28;20045;-64
2023/05/28 05:58:52;;;;;;;25.90;8.55;;;14.10;99.90;;;;;;5042413;28;20048;-63
2023/05/28 06:01:20;;;;;;;24.23;8.52;;;14.20;99.90;;;;;;5073556;28;20068;-63
2023/05/28 06:03:46;;;;;;;28.45;9.27;;;14.20;99.90;;;;;;5072815;28;20040;-64
2023/05/28 06:06:12;;;;;;;23.17;8.20;;;14.30;99.90;;;;;;5044038;28;21064;-63
2023/05/28 06:08:39;;;;;;;19.67;8.13;;;14.30;99.90;;;;;;5072876;28;20052;-63
2023/05/28 06:11:04;;;;;;;19.27;8.32;;;14.40;99.90;;;;;;5037980;28;20040;-63
2023/05/28 06:13:31;;;;;;;26.65;8.70;;;14.40;99.90;;;;;;5035310;28;20563;-63
2023/05/28 06:15:57;;;;;;;24.23;7.78;;;14.50;99.90;;;;;;5042640;28;20041;-63
2023/05/28 06:18:23;;;;;;;22.58;8.57;;;14.50;99.90;;;;;;5040736;28;20090;-63
2023/05/28 06:20:49;;;;;;;20.50;7.57;;;14.50;99.90;;;;;;5077727;28;20045;-63
2023/05/28 06:23:16;;;;;;;27.02;8.60;;;14.50;99.90;;;;;;5038262;28;20083;-63
2023/05/28 06:25:43;;;;;;;24.02;8.35;;;14.50;99.90;;;;;;5069996;28;20045;-63
2023/05/28 06:28:10;;;;;;;25.55;9.00;;;14.50;99.90;;;;;;5039602;28;20049;-63
2023/05/28 06:30:35;;;;;;;26.02;8.13;;;14.60;99.90;;;;;;5044246;28;20048;-63
2023/05/28 06:33:01;;;;;;;25.48;8.05;;;14.50;99.90;;;;;;5034427;28;20045;-63
2023/05/28 06:35:26;;;;;;;22.70;8.18;;;14.60;99.90;;;;;;5042956;28;20036;-63
2023/05/28 06:37:52;;;;;;;20.48;7.93;;;14.70;99.90;;;;;;5072421;28;20396;-63
2023/05/28 06:40:18;;;;;;;22.63;7.78;;;14.80;99.90;;;;;;5032907;28;20495;-63
2023/05/28 06:42:44;;;;;;;17.70;7.75;;;14.90;99.90;;;;;;5037111;28;20045;-64
2023/05/28 06:45:10;;;;;;;22.13;7.88;;;15.00;99.90;;;;;;5036865;28;20179;-63
2023/05/28 06:47:36;;;;;;;19.75;7.30;;;15.20;99.90;;;;;;5070077;28;20405;-63
2023/05/28 06:50:02;;;;;;;23.92;7.55;;;15.30;99.90;;;;;;5037106;28;21523;-64
2023/05/28 06:52:27;;;;;;;22.67;7.50;;;15.50;99.90;;;;;;5070211;28;20082;-64
2023/05/28 06:54:53;;;;;;;25.67;8.27;;;15.60;99.90;;;;;;5075455;28;20099;-63
2023/05/28 06:57:18;;;;;;;19.35;7.70;;;15.80;99.90;;;;;;5072870;28;20476;-64
2023/05/28 06:59:44;;;;;;;22.90;7.30;;;15.90;99.90;;;;;;5070723;28;20037;-64
2023/05/28 07:02:10;;;;;;;19.30;7.00;;;16.10;99.90;;;;;;5037713;28;20033;-63
2023/05/28 07:04:37;;;;;;;23.42;7.28;;;16.20;99.90;;;;;;5037568;28;20089;-64
2023/05/28 07:07:03;;;;;;;21.50;7.40;;;16.40;99.90;;;;;;5038952;28;20042;-64
2023/05/28 07:09:29;;;;;;;23.95;7.50;;;16.50;99.90;;;;;;5043461;28;20464;-64
2023/05/28 07:11:55;;;;;;;23.80;7.18;;;16.60;99.90;;;;;;5025266;28;20048;-63
2023/05/28 07:14:20;;;;;;;23.80;7.55;;;16.70;99.90;;;;;;5048286;28;20059;-64
2023/05/28 07:16:46;;;;;;;22.23;7.03;;;16.70;99.90;;;;;;5063307;28;20129;-63
2023/05/28 07:19:12;;;;;;;19.67;7.85;;;16.80;99.90;;;;;;5034595;28;20069;-63
2023/05/28 07:21:38;;;;;;;20.17;6.47;;;16.90;99.90;;;;;;5039746;28;20041;-65
2023/05/28 07:24:05;;;;;;;20.60;7.10;;;16.90;99.90;;;;;;5040634;28;20095;-63
2023/05/28 07:26:31;;;;;;;23.20;7.47;;;16.90;99.90;;;;;;5045797;28;20033;-63
2023/05/28 07:28:57;;;;;;;21.23;7.13;;;17.00;99.90;;;;;;5046834;28;20154;-65
2023/05/28 07:31:22;;;;;;;24.83;7.70;;;17.00;99.90;;;;;;5050789;28;20087;-63
2023/05/28 07:33:49;;;;;;;23.85;7.50;;;17.10;99.90;;;;;;5036702;28;20495;-65
2023/05/28 07:36:15;;;;;;;20.33;7.40;;;17.20;99.90;;;;;;5045034;28;20048;-64
2023/05/28 07:38:42;;;;;;;20.90;7.10;;;17.20;99.90;;;;;;5062480;28;20049;-62
2023/05/28 07:41:08;;;;;;;23.60;8.45;;;17.30;99.90;;;;;;5042062;28;20111;-64
2023/05/28 07:43:33;;;;;;;18.08;6.93;;;17.40;99.90;;;;;;5077309;28;20128;-65
2023/05/28 07:45:59;;;;;;;19.88;7.50;;;17.50;99.90;;;;;;5047564;28;20044;-65
2023/05/28 07:48:24;;;;;;;20.20;7.15;;;17.50;99.90;;;;;;5039993;28;20048;-64
2023/05/28 07:50:51;;;;;;;21.65;7.30;;;17.50;99.90;;;;;;5042139;28;20041;-65
2023/05/28 07:53:17;;;;;;;22.73;7.68;;;17.60;99.90;;;;;;5043207;28;20468;-65
2023/05/28 07:55:43;;;;;;;20.88;6.57;;;17.70;99.90;;;;;;5080027;28;20029;-64
2023/05/28 07:58:08;;;;;;;19.27;7.68;;;17.80;99.90;;;;;;5037210;28;20045;-64
2023/05/28 08:00:36;;;;;;;20.02;7.70;;;17.80;99.90;;;;;;5045769;28;20476;-63
2023/05/28 08:03:02;;;;;;;21.88;7.82;;;17.90;99.90;;;;;;5046962;28;20468;-65
2023/05/28 08:05:28;;;;;;;22.48;7.82;;;18.00;99.90;;;;;;5081763;28;20377;-64
2023/05/28 08:07:53;;;;;;;19.05;7.63;;;18.10;99.90;;;;;;5041213;28;20048;-64
2023/05/28 08:10:19;;;;;;;23.80;7.65;;;18.10;99.90;;;;;;5045205;28;20038;-63
2023/05/28 08:12:45;;;;;;;20.27;7.57;;;18.20;99.90;;;;;;5047167;28;20119;-64
2023/05/28 08:15:11;;;;;;;18.20;7.65;;;18.30;99.90;;;;;;5074606;28;20143;-64
2023/05/28 08:17:36;;;;;;;20.08;7.40;;;18.30;99.90;;;;;;5046512;28;20065;-64
2023/05/28 08:20:03;;;;;;;21.70;7.55;;;18.40;99.90;;;;;;5050294;28;20132;-64
2023/05/28 08:22:29;;;;;;;18.30;7.28;;;18.50;99.90;;;;;;5042397;28;20044;-64
2023/05/28 08:24:54;;;;;;;22.73;8.02;;;18.60;99.90;;;;;;5082179;28;20119;-65
2023/05/28 08:27:20;;;;;;;19.23;8.20;;;18.60;99.90;;;;;;5043074;28;20460;-65
2023/05/28 08:29:46;;;;;;;20.63;8.10;;;18.70;99.90;;;;;;5040876;28;20048;-64
2023/05/28 08:32:12;;;;;;;21.05;8.07;;;18.70;99.90;;;;;;5047431;28;20192;-64
2023/05/28 08:34:38;;;;;;;22.27;8.20;;;18.70;99.90;;;;;;5049349;28;20119;-64
2023/05/28 08:37:07;;;;;;;20.60;7.45;;;18.90;99.90;;;;;;5043164;28;20052;-62
2023/05/28 08:39:33;;;;;;;20.95;7.65;;;18.90;99.90;;;;;;5043362;28;20507;-63
2023/05/28 08:41:58;;;;;;;17.20;7.88;;;19.00;99.90;;;;;;5049587;28;20527;-63
2023/05/28 08:44:24;;;;;;;23.08;8.40;;;19.10;99.90;;;;;;5078148;28;20123;-62
2023/05/28 08:46:51;;;;;;;20.65;7.63;;;19.20;99.90;;;;;;5043952;28;20060;-64
2023/05/28 08:49:18;;;;;;;18.02;7.45;;;19.30;99.90;;;;;;5048464;28;20041;-63
2023/05/28 08:51:48;;;;;;;20.75;7.53;;;19.40;99.90;;;;;;5045528;28;20099;-63
2023/05/28 08:54:15;;;;;;;22.50;8.38;;;19.40;99.90;;;;;;5043160;28;20048;-64
2023/05/28 08:56:40;;;;;;;21.48;8.52;;;19.50;99.90;;;;;;5039573;28;20056;-63
2023/05/28 08:59:10;;;;;;;21.92;7.75;;;19.60;99.90;;;;;;5046691;28;20480;-64
2023/05/28 09:01:37;;;;;;;22.33;8.13;;;19.50;99.90;;;;;;5049777;28;20025;-64
2023/05/28 09:04:03;;;;;;;18.85;8.07;;;19.60;99.90;;;;;;5030138;28;20536;-63
2023/05/28 09:06:31;;;;;;;18.50;7.85;;;19.70;99.90;;;;;;5073818;28;20037;-64
2023/05/28 09:08:57;;;;;;;16.95;8.20;;;19.80;99.90;;;;;;5040038;28;20041;-63
2023/05/28 09:11:23;;;;;;;21.27;8.43;;;19.80;99.90;;;;;;5034660;28;20037;-63
2023/05/28 09:13:49;;;;;;;23.05;7.70;;;19.90;99.90;;;;;;5045426;28;20426;-64
2023/05/28 09:16:24;;;;;;;19.38;7.72;;;20.00;99.90;;;;;;5034953;28;20056;-63
2023/05/28 09:18:52;;;;;;;23.45;8.00;;;20.10;99.90;;;;;;5036689;28;20203;-63
2023/05/28 09:21:20;;;;;;;19.45;8.13;;;20.10;99.90;;;;;;5043182;28;20081;-64
2023/05/28 09:23:50;;;;;;;24.05;8.60;;;20.10;99.90;;;;;;5044009;28;20040;-64
2023/05/28 09:26:19;;;;;;;21.48;8.38;;;20.10;99.90;;;;;;5038831;28;20510;-63
2023/05/28 09:28:45;;;;;;;21.35;8.55;;;20.10;99.90;;;;;;5037957;28;20127;-63
2023/05/28 09:31:11;;;;;;;18.80;7.75;;;20.10;99.90;;;;;;5032511;28;20123;-64
2023/05/28 09:33:44;;;;;;;16.35;7.93;;;20.10;99.90;;;;;;5042084;28;20041;-63
2023/05/28 09:36:10;;;;;;;15.73;8.00;;;20.20;99.90;;;;;;5038079;28;20052;-63
2023/05/28 09:38:40;;;;;;;18.27;8.38;;;20.30;99.90;;;;;;5044617;28;20396;-64
2023/05/28 09:41:20;;;;;;;18.25;6.38;;;20.30;99.90;;;;;;5038684;28;20069;-64
2023/05/28 09:43:46;;;;;;;16.98;7.90;;;20.40;99.90;;;;;;5041544;28;20064;-64
2023/05/28 09:46:12;;;;;;;17.63;7.32;;;20.20;99.90;;;;;;5047263;28;20059;-65
2023/05/28 09:48:37;;;;;;;18.33;7.50;;;20.10;99.90;;;;;;5038354;28;20041;-64
2023/05/28 09:51:04;;;;;;;16.48;6.97;;;20.10;99.90;;;;;;5029157;28;20037;-64
2023/05/28 09:53:34;;;;;;;16.85;7.00;;;20.20;99.90;;;;;;5032413;28;20041;-64
2023/05/28 09:56:00;;;;;;;18.10;8.07;;;20.30;99.90;;;;;;5043845;28;20123;-65
2023/05/28 09:58:34;;;;;;;19.15;7.57;;;20.40;99.90;;;;;;5036983;28;20556;-62
2023/05/28 10:01:04;;;;;;;19.70;7.40;;;20.40;99.90;;;;;;5029295;28;20043;-64
2023/05/28 10:03:43;;;;;;;19.48;7.53;;;20.40;99.90;;;;;;5041699;28;20508;-64
2023/05/28 10:06:17;;;;;;;18.15;7.32;;;20.40;99.90;;;;;;5023729;28;20376;-64
2023/05/28 10:08:50;;;;;;;17.48;6.72;;;20.50;99.90;;;;;;5072866;28;20045;-64
2023/05/28 10:11:17;;;;;;;18.85;7.53;;;20.50;99.90;;;;;;5044184;28;20067;-63
2023/05/28 10:13:42;;;;;;;16.17;6.68;;;20.50;99.90;;;;;;5036642;28;20041;-64
2023/05/28 10:16:08;;;;;;;15.98;6.72;;;20.60;99.90;;;;;;5037505;28;20098;-65
2023/05/28 10:18:37;;;;;;;16.42;6.78;;;20.50;99.90;;;;;;5040366;28;20053;-63
2023/05/28 10:21:05;;;;;;;19.52;7.30;;;20.40;99.90;;;;;;5031480;28;20033;-63
2023/05/28 10:23:31;;;;;;;16.42;6.82;;;20.60;99.90;;;;;;5038714;28;20045;-64
2023/05/28 10:25:57;;;;;;;19.00;6.88;;;20.60;99.90;;;;;;5040119;28;20111;-63
2023/05/28 10:28:22;;;;;;;14.00;6.30;;;20.60;99.90;;;;;;5039119;28;20119;-64
2023/05/28 10:31:03;;;;;;;18.23;6.40;;;20.60;99.90;;;;;;5033181;28;20062;-63
2023/05/28 10:33:28;;;;;;;14.88;6.10;;;20.70;99.90;;;;;;5042336;28;20032;-63
2023/05/28 10:35:56;;;;;;;14.55;6.95;;;20.70;99.90;;;;;;5070224;28;20052;-64
2023/05/28 10:38:22;;;;;;;15.60;6.40;;;20.80;99.90;;;;;;5040442;28;20119;-63
2023/05/28 10:40:48;;;;;;;15.27;6.13;;;20.80;99.90;;;;;;5067047;28;20341;-63
2023/05/28 10:43:40;;;;;;;18.38;6.28;;;20.90;99.90;;;;;;5043699;28;20033;-63
2023/05/28 10:46:10;;;;;;;13.30;6.43;;;20.90;99.90;;;;;;5063179;28;20343;-63
2023/05/28 10:49:02;;;;;;;13.77;6.28;;;21.00;99.90;;;;;;5030516;28;20124;-65
2023/05/28 10:52:02;;;;;;;18.05;6.97;;;21.00;99.90;;;;;;5075419;28;20047;-64
2023/05/28 10:54:35;;;;;;;12.70;6.00;;;20.90;96.60;;;;;;5045739;28;20037;-65
2023/05/28 10:57:21;;;;;;;14.45;6.40;;;20.80;97.40;;;;;;5034973;28;20124;-64
2023/05/28 11:00:00;;;;;;;13.40;5.97;;;20.70;98.80;;;;;;5043718;28;20049;-64
2023/05/28 11:02:28;;;;;;;15.82;7.20;;;20.70;95.30;;;;;;5028347;28;20045;-66
2023/05/28 11:05:02;;;;;;;16.70;7.00;;;20.70;96.60;;;;;;5077436;28;20068;-64
2023/05/28 11:07:35;;;;;;;14.88;6.43;;;20.70;98.60;;;;;;5035233;28;20377;-66
2023/05/28 11:10:02;;;;;;;15.80;6.97;;;20.70;97.50;;;;;;5032666;28;20077;-67
2023/05/28 11:12:30;;;;;;;17.67;7.25;;;20.80;97.00;;;;;;5033064;28;20459;-65
2023/05/28 11:14:56;;;;;;;15.02;6.88;;;20.80;96.10;;;;;;5041891;28;20041;-64
2023/05/28 11:17:22;;;;;;;15.43;6.80;;;20.70;95.10;;;;;;5028571;28;20037;-64
2023/05/28 11:19:51;;;;;;;12.63;5.80;;;20.70;97.10;;;;;;5032373;28;20099;-66
2023/05/28 11:22:18;;;;;;;15.73;7.10;;;20.80;95.60;;;;;;5036463;28;20419;-66
2023/05/28 11:25:08;;;;;;;15.68;6.50;;;20.80;94.50;;;;;;5044315;28;20060;-64
2023/05/28 11:27:35;;;;;;;13.70;6.10;;;20.80;95.30;;;;;;5041484;28;20056;-66
2023/05/28 11:30:06;;;;;;;10.75;4.80;;;20.90;94.80;;;;;;5046301;28;20120;-65
2023/05/28 11:32:33;;;;;;;14.10;5.50;;;20.90;92.20;;;;;;5042805;28;20045;-66
2023/05/28 11:35:00;;;;;;;14.60;5.28;;;20.80;91.30;;;;;;5079312;28;20048;-67
2023/05/28 11:37:33;;;;;;;9.55;5.28;;;20.80;91.80;;;;;;5038332;28;20504;-66
2023/05/28 11:40:00;;;;;;;10.90;5.72;;;20.80;91.10;;;;;;5076057;28;20033;-64
2023/05/28 11:42:29;;;;;;;11.93;5.47;;;20.80;91.80;;;;;;5044887;28;20051;-65
2023/05/28 11:44:56;;;;;;;11.00;6.20;;;20.90;92.40;;;;;;5061196;28;20508;-64
2023/05/28 11:47:22;;;;;;;10.23;5.70;;;20.90;91.70;;;;;;5040886;28;20052;-66
2023/05/28 11:49:48;;;;;;;10.13;5.35;;;21.00;89.70;;;;;;5031913;28;20045;-66
2023/05/28 11:52:16;;;;;;;11.85;5.75;;;21.00;88.50;;;;;;5042501;28;20049;-65
2023/05/28 11:54:44;;;;;;;11.63;5.85;;;20.90;89.10;;;;;;5040110;28;20049;-65
2023/05/28 11:57:10;;;;;;;13.30;5.78;;;21.00;89.60;;;;;;5035452;28;20075;-66
2023/05/28 11:59:36;;;;;;;12.23;6.03;;;21.00;90.60;;;;;;5041176;28;20144;-66
2023/05/28 12:02:13;;;;;;;12.05;5.45;;;21.10;90.60;;;;;;5041952;28;20044;-64
2023/05/28 12:04:39;;;;;;;10.02;5.40;;;21.10;92.00;;;;;;5044179;28;20048;-64
2023/05/28 12:07:05;;;;;;;10.80;5.68;;;21.20;92.10;;;;;;5077150;28;20032;-62
2023/05/28 12:09:32;;;;;;;11.02;5.30;;;21.30;92.20;;;;;;5039934;28;20044;-64
2023/05/28 12:12:03;;;;;;;9.57;6.00;;;21.40;91.50;;;;;;5043482;28;20112;-64
2023/05/28 12:14:31;;;;;;;12.95;6.50;;;21.40;90.30;;;;;;5039797;28;20067;-65
2023/05/28 12:17:09;;;;;;;11.68;5.95;;;21.50;87.20;;;;;;5040847;28;20053;-63
2023/05/28 12:19:35;;;;;;;15.68;6.07;;;21.40;84.70;;;;;;5070136;28;20072;-64
2023/05/28 12:22:03;;;;;;;10.60;5.90;;;21.40;86.90;;;;;;5038529;28;20602;-63
2023/05/28 12:24:29;;;;;;;14.27;6.75;;;21.40;87.20;;;;;;5047491;28;20040;-64
2023/05/28 12:26:54;;;;;;;11.18;6.03;;;21.50;88.20;;;;;;5036291;28;20037;-64
2023/05/28 12:29:20;;;;;;;11.27;6.20;;;21.50;81.60;;;;;;5070689;28;20040;-65
2023/05/28 12:31:45;;;;;;;11.20;6.68;;;21.50;82.80;;;;;;5035347;28;20045;-64
2023/05/28 12:34:11;;;;;;;11.88;6.43;;;21.40;81.90;;;;;;5038776;28;20130;-63